ENRT weather

Trondheim Heliport, Rosten
Trondheim, Sør-Trøndelag, Norway

Public forecast

Using degrees Celsius for public forecast. Weather courtesy of forecast.io.

Closest aviation weather report (METAR) to Trondheim Heliport, Rosten

Closest report is Trondheim Airport Værnes, 15.7 nm (29.1 km) ENE. Retrieved 2020/05/25 13:20 UTC (34 minutes ago):

ENVA 251320Z 27007KT 9999 FEW029 14/07 Q1030 NOSIG RMK WIND 670FT 33005KT

Closest aviation forecast (TAF) to Trondheim Heliport, Rosten

Closest forecast is Trondheim Airport Værnes, 15.7 nm (29.1 km) ENE. Retrieved 2020/05/25 12:56 UTC (58 minutes ago):

TAF ENVA 251100Z 2512/2612 VRB05KT 9999 FEW020 SCT040 PROB40 2608/2612 28010KT